Time;durP1;ratioP1;P1;durP2;ratioP2;P2;SDS_P1;SDS_P2;PMS_P1;PMS_P2;Temp;Humidity;BMP_temperature;BMP_pressure;BME280_temperature;BME280_humidity;BME280_pressure;Samples;Min_cycle;Max_cycle;Signal;HPM_P1;HPM_P2
2023/09/22 00:00:23;;;;;;;13.20;5.53;;;;;;;-143.21;68.04;71540.78;5112793;28;20192;-88
2023/09/22 00:02:49;;;;;;;8.70;5.10;;;;;;;-143.21;68.06;71552.69;5112054;28;20201;-88
2023/09/22 00:05:16;;;;;;;15.27;5.47;;;;;;;-143.21;67.48;71538.78;5109594;28;20236;-84
2023/09/22 00:07:45;;;;;;;11.35;5.85;;;;;;;-143.21;67.91;71542.75;5108265;28;20658;-83
2023/09/22 00:10:13;;;;;;;15.25;5.28;;;;;;;-143.21;69.74;71520.94;5108364;28;20207;-83
2023/09/22 00:12:40;;;;;;;10.82;5.50;;;;;;;-143.21;70.51;71530.88;5108005;28;20276;-84
2023/09/22 00:15:09;;;;;;;10.77;5.65;;;;;;;-143.21;70.78;71530.88;5108752;28;20204;-85
2023/09/22 00:17:36;;;;;;;17.88;5.97;;;;;;;-143.21;71.68;71550.69;5108891;28;20678;-86
2023/09/22 00:20:07;;;;;;;13.25;5.43;;;;;;;-143.21;72.13;71570.53;5109128;28;20291;-85
2023/09/22 00:22:34;;;;;;;15.27;6.30;;;;;;;-143.21;73.81;71568.53;5108953;28;20275;-86
2023/09/22 00:25:01;;;;;;;13.30;5.65;;;;;;;-143.21;74.95;71580.44;5109006;28;20224;-86
2023/09/22 00:27:29;;;;;;;12.70;5.97;;;;;;;-143.21;77.37;71560.59;5108760;28;20246;-86
2023/09/22 00:29:56;;;;;;;13.85;6.45;;;;;;;-143.21;77.52;71578.44;5108048;28;20196;-86
2023/09/22 00:32:23;;;;;;;8.55;5.60;;;;;;;-143.21;78.82;71584.41;5112897;28;20228;-85
2023/09/22 00:34:50;;;;;;;11.40;6.78;;;;;;;-143.21;78.52;71590.34;5112676;28;20211;-86
2023/09/22 00:37:17;;;;;;;15.43;6.90;;;;;;;-143.21;78.24;71586.38;5112191;27;20300;-86
2023/09/22 00:39:44;;;;;;;13.27;6.15;;;;;;;-143.21;76.42;71586.38;5112540;28;20738;-86
2023/09/22 00:42:11;;;;;;;11.18;5.90;;;;;;;-143.21;76.31;71610.16;5112258;28;20219;-86
2023/09/22 00:44:39;;;;;;;10.68;5.95;;;;;;;-143.21;78.42;71618.09;5112706;28;20204;-85
2023/09/22 00:47:07;;;;;;;12.25;6.32;;;;;;;-143.21;79.05;71610.16;5112592;28;20215;-85
2023/09/22 00:49:36;;;;;;;11.38;6.68;;;;;;;-143.21;79.90;71554.66;5112328;28;20253;-85
2023/09/22 00:52:04;;;;;;;9.23;5.97;;;;;;;-143.21;80.68;71534.81;5112056;28;20207;-85
2023/09/22 00:54:31;;;;;;;14.27;6.25;;;;;;;-143.21;81.33;71564.56;5111810;28;20196;-85
2023/09/22 00:56:59;;;;;;;13.50;7.15;;;;;;;-143.21;81.37;71570.53;5112487;28;20200;-86
2023/09/22 00:59:26;;;;;;;16.67;8.02;;;;;;;-143.21;81.81;71582.41;5112161;28;20204;-85
2023/09/22 01:01:55;;;;;;;16.98;9.00;;;;;;;-143.21;81.75;71588.38;5111969;28;20204;-85
2023/09/22 01:04:22;;;;;;;17.25;8.07;;;;;;;-143.21;81.94;71598.28;5112149;28;20238;-85
2023/09/22 01:06:49;;;;;;;11.77;7.25;;;;;;;-143.21;82.09;71596.28;5111723;28;20941;-85
2023/09/22 01:09:16;;;;;;;14.20;6.78;;;;;;;-143.21;81.69;71586.38;5111807;28;20243;-85
2023/09/22 01:11:44;;;;;;;14.32;7.53;;;;;;;-143.21;81.74;71588.38;5112217;28;20200;-85
2023/09/22 01:14:11;;;;;;;16.25;7.35;;;;;;;-143.21;82.96;71600.25;5112077;28;20214;-85
2023/09/22 01:16:39;;;;;;;16.40;7.22;;;;;;;-143.21;84.47;71596.28;5112407;28;20207;-85
2023/09/22 01:19:16;;;;;;;12.85;7.50;;;;;;;-143.21;84.61;71604.22;5111639;28;20203;-85
2023/09/22 01:21:44;;;;;;;13.38;7.43;;;;;;;-143.21;85.17;71618.09;5111831;28;20286;-85
2023/09/22 01:24:12;;;;;;;14.88;7.10;;;;;;;-143.21;84.97;71620.09;5111259;28;20214;-85
2023/09/22 01:26:39;;;;;;;15.35;6.45;;;;;;;-143.21;85.11;71622.06;5111617;28;20224;-85
2023/09/22 01:29:06;;;;;;;12.55;6.68;;;;;;;-143.21;84.94;71637.94;5111424;27;20257;-85
2023/09/22 01:31:34;;;;;;;12.70;6.85;;;;;;;-143.21;85.08;71645.88;5111255;28;20613;-85
2023/09/22 01:34:01;;;;;;;11.88;5.93;;;;;;;-143.21;84.49;71641.91;5110725;28;20231;-85
2023/09/22 01:36:28;;;;;;;12.05;6.68;;;;;;;-143.21;83.04;71624.06;5108246;28;20204;-86
2023/09/22 01:38:57;;;;;;;13.60;6.10;;;;;;;-143.21;82.15;71624.06;5108328;28;20290;-86
2023/09/22 01:41:24;;;;;;;11.73;5.35;;;;;;;-143.21;81.36;71635.94;5111967;28;20207;-86
2023/09/22 01:43:51;;;;;;;9.23;5.20;;;;;;;-143.21;81.47;71647.84;5111737;28;20670;-86
2023/09/22 01:46:18;;;;;;;10.98;5.53;;;;;;;-143.21;82.30;71651.81;5111715;28;20232;-86
2023/09/22 01:48:45;;;;;;;11.55;5.20;;;;;;;-143.21;82.87;71653.78;5111431;28;20199;-85
2023/09/22 01:51:12;;;;;;;10.68;5.63;;;;;;;-143.21;82.86;71630.00;5110987;28;20683;-86
2023/09/22 01:53:39;;;;;;;15.80;5.82;;;;;;;-143.21;83.04;71610.16;5111281;28;20199;-86
2023/09/22 01:56:07;;;;;;;11.65;5.88;;;;;;;-143.21;84.23;71620.09;5111201;28;20196;-86
2023/09/22 01:58:34;;;;;;;20.55;7.78;;;;;;;-143.21;84.61;71635.94;5111694;28;20203;-86
2023/09/22 02:01:01;;;;;;;9.80;7.03;;;;;;;-143.21;84.88;71645.88;5110940;28;20208;-86
2023/09/22 02:03:29;;;;;;;14.60;7.50;;;;;;;-143.21;84.89;71637.94;5111594;28;20206;-85
2023/09/22 02:05:57;;;;;;;16.73;7.35;;;;;;;-143.21;85.63;71645.88;5111374;28;20224;-86
2023/09/22 02:08:24;;;;;;;14.10;7.00;;;;;;;-143.21;86.03;71645.88;5111187;28;20223;-87
2023/09/22 02:10:51;;;;;;;20.15;7.07;;;;;;;-143.21;86.14;71637.94;5110974;28;20286;-88
2023/09/22 02:13:19;;;;;;;11.23;6.75;;;;;;;-143.21;86.03;71630.00;5111511;28;20227;-86
2023/09/22 02:15:46;;;;;;;18.17;7.70;;;;;;;-143.21;86.02;71635.94;5110553;28;20208;-87
2023/09/22 02:18:13;;;;;;;13.73;7.10;;;;;;;-143.21;86.05;71647.84;5110467;28;20206;-87
2023/09/22 02:20:40;;;;;;;13.98;6.95;;;;;;;-143.21;86.75;71665.69;5111573;28;20200;-87
2023/09/22 02:23:07;;;;;;;14.90;6.95;;;;;;;-143.21;87.65;71669.66;5110094;28;20204;-87
2023/09/22 02:25:34;;;;;;;13.95;7.15;;;;;;;-143.21;88.33;71669.66;5111724;28;20204;-86
2023/09/22 02:28:01;;;;;;;14.07;6.50;;;;;;;-143.21;88.56;71663.72;5110860;28;20200;-87
2023/09/22 02:30:29;;;;;;;12.80;7.07;;;;;;;-143.21;88.20;71655.78;5108023;28;20206;-88
2023/09/22 02:32:56;;;;;;;14.25;7.35;;;;;;;-143.21;88.58;71663.72;5107398;28;20243;-85
2023/09/22 02:35:23;;;;;;;17.23;7.15;;;;;;;-143.21;88.56;71667.66;5110304;28;20204;-84
2023/09/22 02:37:50;;;;;;;18.88;7.80;;;;;;;-143.21;88.71;71645.88;5110497;28;20200;-83
2023/09/22 02:40:17;;;;;;;13.68;6.65;;;;;;;-143.21;88.12;71639.91;5110032;28;20235;-84
2023/09/22 02:42:44;;;;;;;10.98;6.85;;;;;;;-143.21;87.91;71659.75;5110327;28;20218;-83
2023/09/22 02:45:11;;;;;;;15.77;6.68;;;;;;;-143.21;87.37;71669.66;5109867;28;20203;-83
2023/09/22 02:47:41;;;;;;;14.60;7.47;;;;;;;-143.21;87.67;71693.44;5110106;28;20224;-83
2023/09/22 02:50:09;;;;;;;11.98;7.05;;;;;;;-143.21;88.08;71701.38;5109494;28;20650;-83
2023/09/22 02:52:38;;;;;;;12.70;7.43;;;;;;;-143.21;88.17;71709.31;5109885;28;20208;-83
2023/09/22 02:55:07;;;;;;;13.80;7.30;;;;;;;-143.21;88.72;71705.34;5109587;28;20787;-84
2023/09/22 02:57:35;;;;;;;12.70;7.07;;;;;;;-143.21;88.09;71711.28;5109954;28;20287;-84
2023/09/22 03:00:11;;;;;;;14.18;7.82;;;;;;;-143.21;87.97;71723.19;5108771;28;20203;-84
2023/09/22 03:02:38;;;;;;;18.45;7.50;;;;;;;-143.21;88.39;71745.00;5108838;28;20207;-84
2023/09/22 03:05:09;;;;;;;15.43;8.40;;;;;;;-143.21;88.84;71752.94;5109597;28;20253;-84
2023/09/22 03:07:36;;;;;;;16.10;8.38;;;;;;;-143.21;89.48;71762.84;5109968;28;20218;-84
2023/09/22 03:10:06;;;;;;;15.52;8.52;;;;;;;-143.21;90.21;71774.75;5109749;28;20687;-84
2023/09/22 03:12:34;;;;;;;14.82;7.50;;;;;;;-143.21;90.60;71756.91;5109132;28;20206;-84
2023/09/22 03:15:01;;;;;;;12.75;7.53;;;;;;;-143.21;90.62;71748.97;5108966;28;20232;-84
2023/09/22 03:17:28;;;;;;;15.18;8.27;;;;;;;-143.21;89.55;71745.00;5109665;28;20231;-84
2023/09/22 03:19:57;;;;;;;13.82;8.30;;;;;;;-143.21;89.25;71741.03;5106337;28;20253;-84
2023/09/22 03:22:26;;;;;;;15.23;8.15;;;;;;;-143.21;89.29;71743.00;5109771;28;20199;-85
2023/09/22 03:24:53;;;;;;;17.85;7.90;;;;;;;-143.21;89.22;71745.00;5109592;28;20526;-84
2023/09/22 03:27:20;;;;;;;16.25;8.82;;;;;;;-143.21;89.21;71741.03;5109035;28;20227;-84
2023/09/22 03:29:46;;;;;;;15.00;8.00;;;;;;;-143.21;88.63;71733.09;5109376;28;20212;-84
2023/09/22 03:32:18;;;;;;;19.45;8.13;;;;;;;-143.21;88.55;71743.00;5108538;28;20235;-85
2023/09/22 03:34:47;;;;;;;16.42;8.00;;;;;;;-143.21;88.26;71745.00;5108837;28;20241;-85
2023/09/22 03:37:14;;;;;;;15.02;7.75;;;;;;;-143.21;87.98;71745.00;5109238;28;20650;-85
2023/09/22 03:39:43;;;;;;;13.20;7.85;;;;;;;-143.21;88.58;71745.00;5109451;28;20697;-86
2023/09/22 03:42:10;;;;;;;15.00;7.75;;;;;;;-143.21;88.55;71754.91;5109170;28;20211;-87
2023/09/22 03:44:36;;;;;;;15.20;7.18;;;;;;;-143.21;87.51;71756.91;5109505;28;20234;-86
2023/09/22 03:47:03;;;;;;;16.10;6.97;;;;;;;-143.21;87.53;71760.88;5109237;28;20241;-86
2023/09/22 03:49:30;;;;;;;19.70;7.20;;;;;;;-143.21;87.68;71764.81;5109155;28;20222;-85
2023/09/22 03:51:57;;;;;;;11.30;7.10;;;;;;;-143.21;88.33;71766.81;5110184;28;20268;-85
2023/09/22 03:54:24;;;;;;;12.30;7.50;;;;;;;-143.21;88.73;71770.78;5108946;28;20207;-86
2023/09/22 03:56:52;;;;;;;17.45;7.82;;;;;;;-143.21;88.99;71770.78;5109449;28;20207;-85
2023/09/22 03:59:19;;;;;;;11.32;7.15;;;;;;;-143.21;88.33;71762.84;5109026;28;21370;-85
2023/09/22 04:01:46;;;;;;;13.23;7.72;;;;;;;-143.21;88.57;71764.81;5111328;28;21565;-86
2023/09/22 04:04:13;;;;;;;13.98;7.22;;;;;;;-143.21;88.71;71768.78;5111237;28;20235;-87
2023/09/22 04:06:40;;;;;;;16.42;7.70;;;;;;;-143.21;88.61;71760.88;5112590;28;20273;-84
2023/09/22 04:09:07;;;;;;;12.93;6.57;;;;;;;-143.21;87.33;71750.94;5112699;28;20198;-83
2023/09/22 04:11:35;;;;;;;14.02;7.88;;;;;;;-143.21;87.86;71768.78;5114097;28;20200;-83
2023/09/22 04:14:03;;;;;;;14.48;8.05;;;;;;;-143.21;87.78;71766.81;5112930;28;20208;-84
2023/09/22 04:16:30;;;;;;;17.90;7.55;;;;;;;-143.21;87.85;71764.81;5112337;27;20207;-84
2023/09/22 04:18:58;;;;;;;14.57;8.05;;;;;;;-143.21;87.33;71770.78;5112720;28;20587;-84
2023/09/22 04:21:25;;;;;;;17.50;10.15;;;;;;;-143.21;88.16;71778.72;5112678;28;20202;-84
2023/09/22 04:23:57;;;;;;;17.55;9.88;;;;;;;-143.21;88.28;71772.75;5112656;28;20204;-87
2023/09/22 04:26:27;;;;;;;14.27;8.68;;;;;;;-143.21;87.61;71782.69;5113820;28;20216;-86
2023/09/22 04:28:55;;;;;;;18.50;8.45;;;;;;;-143.21;88.21;71788.63;5113076;28;20257;-86
2023/09/22 04:31:25;;;;;;;15.25;8.00;;;;;;;-143.21;88.25;71790.59;5112060;28;20264;-85
2023/09/22 04:33:53;;;;;;;15.85;8.30;;;;;;;-143.21;88.49;71802.50;5111948;28;20204;-84
2023/09/22 04:36:21;;;;;;;16.67;8.70;;;;;;;-143.21;88.50;71796.56;5112449;28;20207;-83
2023/09/22 04:38:50;;;;;;;15.95;8.25;;;;;;;-143.21;88.76;71794.56;5113760;28;20942;-84
2023/09/22 04:41:19;;;;;;;12.60;7.13;;;;;;;-143.21;88.24;71800.53;5112873;28;20242;-83
2023/09/22 04:43:46;;;;;;;16.65;6.60;;;;;;;-143.21;87.61;71800.53;5112741;28;20272;-83
2023/09/22 04:46:15;;;;;;;12.30;7.25;;;;;;;-143.21;88.21;71810.44;5112038;28;20207;-85
2023/09/22 04:48:46;;;;;;;16.20;6.78;;;;;;;-143.21;87.99;71790.59;5113410;28;20575;-84
2023/09/22 04:51:43;;;;;;;10.57;6.50;;;;;;;-143.21;88.01;71796.56;5110468;28;20211;-85
2023/09/22 04:54:13;;;;;;;10.38;6.55;;;;;;;-143.21;86.43;71788.63;5110141;28;20208;-85
2023/09/22 04:59:40;;;;;;;12.88;7.18;;;;;;;-143.21;86.33;71796.56;5107544;28;20670;-85
2023/09/22 05:02:24;;;;;;;15.68;7.82;;;;;;;-143.21;86.01;71794.56;5111494;28;20214;-86
2023/09/22 05:04:56;;;;;;;16.40;8.23;;;;;;;-143.21;86.33;71794.56;5111128;28;20515;-86
2023/09/22 05:07:27;;;;;;;15.15;7.50;;;;;;;-143.21;86.77;71792.59;5111082;28;20245;-86
2023/09/22 05:09:55;;;;;;;15.27;7.97;;;;;;;-143.21;86.78;71790.59;5110856;28;20204;-86
2023/09/22 05:12:31;;;;;;;14.80;8.52;;;;;;;-143.21;87.21;71796.56;5111595;28;20301;-90
2023/09/22 05:15:00;;;;;;;21.75;9.60;;;;;;;-143.21;87.30;71794.56;5107963;28;20211;-88
2023/09/22 05:17:28;;;;;;;19.52;9.45;;;;;;;-143.21;87.98;71796.56;5111151;27;20659;-89
2023/09/22 05:19:58;;;;;;;17.98;9.43;;;;;;;-143.21;88.59;71796.56;5111186;28;20219;-88
2023/09/22 05:22:30;;;;;;;18.85;9.90;;;;;;;-143.21;88.40;71792.59;5111888;28;20207;-88
2023/09/22 05:24:57;;;;;;;19.92;10.50;;;;;;;-143.21;88.39;71782.69;5111617;28;20210;-88
2023/09/22 05:27:25;;;;;;;18.05;11.48;;;;;;;-143.21;88.69;71778.72;5111163;28;20228;-88
2023/09/22 05:29:53;;;;;;;25.50;12.40;;;;;;;-143.21;88.72;71792.59;5110801;28;20200;-88
2023/09/22 05:32:20;;;;;;;17.83;11.80;;;;;;;-143.21;88.71;71784.66;5111070;28;20259;-90
2023/09/22 05:34:47;;;;;;;18.77;10.75;;;;;;;-143.21;88.50;71780.69;5111292;28;20251;-85
2023/09/22 05:37:17;;;;;;;17.20;10.35;;;;;;;-143.21;88.26;71786.63;5110381;28;20976;-84
2023/09/22 05:39:44;;;;;;;16.75;10.50;;;;;;;-143.21;87.67;71782.69;5110570;28;20203;-84
2023/09/22 05:42:11;;;;;;;20.65;10.57;;;;;;;-143.21;87.82;71788.63;5110539;28;20215;-87
2023/09/22 05:44:38;;;;;;;19.27;11.50;;;;;;;-143.21;87.72;71788.63;5110264;28;20196;-86
2023/09/22 05:47:05;;;;;;;17.50;10.73;;;;;;;-143.21;87.48;71780.69;5110600;28;20227;-89
2023/09/22 05:49:32;;;;;;;23.38;11.20;;;;;;;-143.21;87.30;71766.81;5111257;28;20207;-88
2023/09/22 05:51:59;;;;;;;17.90;10.85;;;;;;;-143.21;87.56;71772.75;5109016;28;20677;-88
2023/09/22 05:54:27;;;;;;;22.13;11.63;;;;;;;-143.21;87.32;71770.78;5110205;28;20283;-88
2023/09/22 05:56:54;;;;;;;25.80;11.68;;;;;;;-143.21;87.79;71758.88;5106849;28;20200;-89
2023/09/22 05:59:22;;;;;;;19.40;12.02;;;;;;;-143.21;87.67;71758.88;5110711;28;20231;-89
2023/09/22 06:01:49;;;;;;;170.32;22.80;;;;;;;-143.21;87.26;71752.94;5110654;28;20214;-88
2023/09/22 06:04:16;;;;;;;77.50;15.38;;;;;;;-143.21;87.56;71750.94;5110545;28;20227;-87
2023/09/22 06:06:43;;;;;;;21.98;12.07;;;;;;;-143.21;87.43;71745.00;5110459;28;20204;-88
2023/09/22 06:09:11;;;;;;;23.23;11.73;;;;;;;-143.21;87.03;71741.03;5109172;28;20211;-88
2023/09/22 06:11:40;;;;;;;22.83;11.98;;;;;;;-143.21;87.11;71748.97;5111154;28;20282;-88
2023/09/22 06:14:07;;;;;;;23.95;12.27;;;;;;;-143.21;86.74;71745.00;5109595;28;20290;-88
2023/09/22 06:16:49;;;;;;;27.50;12.05;;;;;;;-143.21;87.37;71743.00;5110864;28;20249;-89
2023/09/22 06:19:22;;;;;;;24.65;12.65;;;;;;;-143.21;87.14;71727.16;5110374;28;20291;-90
2023/09/22 06:21:49;;;;;;;24.95;12.25;;;;;;;-143.21;87.14;71727.16;5110603;28;20215;-89
2023/09/22 06:24:17;;;;;;;25.42;13.32;;;;;;;-143.21;87.35;71733.09;5110247;28;20200;-88
2023/09/22 06:26:45;;;;;;;23.65;13.50;;;;;;;-143.21;86.71;71723.19;5109103;28;20206;-87
2023/09/22 06:29:12;;;;;;;22.92;12.50;;;;;;;-143.21;86.98;71717.25;5114009;28;20204;-87
2023/09/22 06:31:38;;;;;;;22.77;11.90;;;;;;;-143.21;86.77;71725.16;5111313;28;20232;-87
2023/09/22 06:34:07;;;;;;;24.65;12.57;;;;;;;-143.21;86.56;71727.16;5109686;28;20199;-87
2023/09/22 06:36:34;;;;;;;26.60;11.70;;;;;;;-143.21;86.77;71721.22;5109490;28;20212;-87
2023/09/22 06:39:07;;;;;;;28.17;12.45;;;;;;;-143.21;86.51;71717.25;5110056;28;20231;-87
2023/09/22 06:41:34;;;;;;;24.23;12.32;;;;;;;-143.21;86.35;71715.25;5107552;28;20208;-86
2023/09/22 06:44:03;;;;;;;20.02;11.80;;;;;;;-143.21;85.96;71711.28;5109238;28;20305;-86
2023/09/22 06:46:35;;;;;;;24.75;12.38;;;;;;;-143.21;85.82;71699.41;5109168;28;20264;-83
2023/09/22 06:49:03;;;;;;;25.40;13.73;;;;;;;-143.21;84.20;71693.44;5109259;28;20294;-83
2023/09/22 06:51:33;;;;;;;21.08;12.88;;;;;;;-143.21;82.99;71693.44;5108764;28;20291;-83
2023/09/22 06:54:00;;;;;;;20.58;13.20;;;;;;;-143.21;83.07;71677.59;5109131;28;20199;-83
2023/09/22 06:56:26;;;;;;;24.58;14.13;;;;;;;-143.21;82.73;71673.63;5109288;28;20207;-84
2023/09/22 06:58:53;;;;;;;24.92;14.77;;;;;;;-143.21;82.75;71671.63;5109207;28;20799;-84
2023/09/22 07:01:22;;;;;;;26.95;15.57;;;;;;;-143.21;82.67;71663.72;5108785;28;20208;-84
2023/09/22 07:03:49;;;;;;;27.70;15.82;;;;;;;-143.21;82.65;71659.75;5108748;28;20208;-85
2023/09/22 07:06:16;;;;;;;24.85;15.32;;;;;;;-143.21;82.21;71649.81;5108920;28;20265;-85
2023/09/22 07:08:46;;;;;;;22.58;14.05;;;;;;;-143.21;82.05;71647.84;5107600;28;20310;-83
2023/09/22 07:11:13;;;;;;;21.35;13.50;;;;;;;-143.21;81.40;71649.81;5108426;28;20196;-83
2023/09/22 07:13:41;;;;;;;21.63;13.18;;;;;;;-143.21;80.21;71637.94;5108698;28;20208;-83
2023/09/22 07:16:08;;;;;;;20.90;13.15;;;;;;;-143.21;79.87;71633.97;5107487;28;20276;-83
2023/09/22 07:18:36;;;;;;;23.55;13.50;;;;;;;-143.21;79.57;71622.06;5106537;28;20196;-83
2023/09/22 07:23:47;;;;;;;21.48;11.52;;;;;;;-143.21;78.94;71598.28;5108680;28;20212;-84
2023/09/22 07:26:14;;;;;;;21.33;10.43;;;;;;;-143.21;78.09;71586.38;5108336;28;20199;-84
2023/09/22 07:28:41;;;;;;;26.35;9.93;;;;;;;-143.21;76.98;71576.47;5109039;28;20220;-83
2023/09/22 07:31:12;;;;;;;21.25;9.05;;;;;;;-143.21;76.59;71572.50;5108908;28;20210;-83
2023/09/22 07:33:40;;;;;;;17.42;9.45;;;;;;;-143.21;75.58;71550.69;5109156;28;20195;-83
2023/09/22 07:36:08;;;;;;;14.02;8.30;;;;;;;-143.21;75.13;71546.72;5108511;28;20287;-83
2023/09/22 07:38:36;;;;;;;17.58;8.80;;;;;;;-143.21;73.46;71538.78;5109796;28;20224;-88
2023/09/22 07:41:03;;;;;;;16.38;7.55;;;;;;;-143.21;71.70;71522.94;5110939;28;20207;-87
2023/09/22 07:43:30;;;;;;;15.13;7.68;;;;;;;-143.21;71.57;71528.88;5111423;28;20214;-89
2023/09/22 07:45:57;;;;;;;17.85;7.25;;;;;;;-143.21;71.67;71522.94;5111912;28;20204;-90
2023/09/22 07:48:24;;;;;;;15.45;7.88;;;;;;;-143.21;71.94;71515.00;5111264;28;20612;-89
2023/09/22 07:50:53;;;;;;;16.45;7.47;;;;;;;-143.21;71.38;71503.09;5111459;28;20206;-88
2023/09/22 07:53:20;;;;;;;15.60;8.05;;;;;;;-143.21;70.75;71495.19;5112654;28;20260;-86
2023/09/22 07:55:47;;;;;;;13.70;7.65;;;;;;;-143.21;70.52;71495.19;5113671;28;20204;-92
2023/09/22 07:58:14;;;;;;;17.98;7.90;;;;;;;-143.21;70.38;71487.25;5114225;28;20204;-87
2023/09/22 08:00:46;;;;;;;18.50;8.07;;;;;;;-143.21;69.68;71485.25;5113864;28;20237;-89
2023/09/22 08:03:13;;;;;;;24.25;7.15;;;;;;;-143.21;69.07;71481.28;5113581;28;20230;-90
2023/09/22 08:05:40;;;;;;;18.27;7.32;;;;;;;-143.21;69.74;71479.31;5114138;28;20730;-88
2023/09/22 08:08:11;;;;;;;12.57;6.30;;;;;;;-143.21;68.30;71461.47;5112089;28;20216;-90
2023/09/22 08:10:38;;;;;;;21.98;7.93;;;;;;;-143.21;68.13;71453.53;5114966;28;20204;-88
2023/09/22 08:13:07;;;;;;;18.92;7.22;;;;;;;-143.21;67.92;71445.59;5114560;28;20261;-88
2023/09/22 08:15:34;;;;;;;16.15;7.63;;;;;;;-143.21;67.73;71433.72;5113656;28;20200;-89
2023/09/22 08:18:02;;;;;;;18.90;7.10;;;;;;;-143.21;66.86;71433.72;5115437;28;20196;-89
2023/09/22 08:20:29;;;;;;;16.50;6.78;;;;;;;-143.21;67.43;71425.78;5114169;28;20226;-89
2023/09/22 08:22:56;;;;;;;18.05;6.88;;;;;;;-143.21;67.58;71419.84;5115062;28;20203;-88
2023/09/22 08:25:24;;;;;;;14.43;6.88;;;;;;;-143.21;67.17;71407.94;5113870;27;20299;-86
2023/09/22 08:27:52;;;;;;;13.73;6.97;;;;;;;-143.21;67.01;71394.06;5114662;28;20228;-88
2023/09/22 08:30:19;;;;;;;15.05;7.05;;;;;;;-143.21;66.50;71378.19;5112890;28;20204;-87
2023/09/22 08:32:47;;;;;;;15.15;6.63;;;;;;;-143.21;66.72;71370.28;5112245;28;20247;-86
2023/09/22 08:35:15;;;;;;;15.30;7.38;;;;;;;-143.21;65.46;71346.47;5112822;28;20200;-86
2023/09/22 08:37:43;;;;;;;10.90;6.43;;;;;;;-143.21;65.46;71332.59;5112985;28;20200;-85
2023/09/22 08:40:14;;;;;;;15.98;6.45;;;;;;;-143.21;65.01;71314.75;5114237;28;20227;-90
2023/09/22 08:42:44;;;;;;;16.15;6.82;;;;;;;-143.21;64.66;71296.91;5114440;28;20283;-89
2023/09/22 08:45:12;;;;;;;14.38;6.75;;;;;;;-143.21;64.25;71279.06;5111091;27;20723;-88
2023/09/22 08:47:40;;;;;;;16.38;6.30;;;;;;;-143.21;64.20;71267.19;5111697;28;20211;-88
2023/09/22 08:50:18;;;;;;;17.58;6.97;;;;;;;-143.21;64.41;71249.34;5111792;28;20208;-88
2023/09/22 08:52:48;;;;;;;14.77;7.03;;;;;;;-143.21;63.29;71221.56;5112942;28;20196;-88
2023/09/22 08:55:15;;;;;;;12.93;6.97;;;;;;;-143.21;62.86;71197.78;5112560;28;20214;-92
2023/09/22 08:57:45;;;;;;;18.27;7.22;;;;;;;-143.21;62.88;71185.88;5114229;28;20207;-92
2023/09/22 09:00:18;;;;;;;14.18;6.70;;;;;;;-143.21;62.73;71166.06;5114453;27;20208;-91
2023/09/22 09:02:46;;;;;;;16.17;6.43;;;;;;;-143.21;62.10;71148.22;5112219;28;20196;-91
2023/09/22 09:05:27;;;;;;;13.30;6.95;;;;;;;-143.21;61.66;71126.41;5112974;28;20208;-90
2023/09/22 09:07:54;;;;;;;18.45;6.78;;;;;;;-143.21;61.43;71104.59;5113425;28;20223;-91
2023/09/22 09:10:32;;;;;;;13.13;4.82;;;;;;;-143.21;62.96;71072.88;5112964;28;20206;-90
2023/09/22 09:13:02;;;;;;;18.17;7.05;;;;;;;-143.21;61.08;71035.22;5112839;28;20214;-91
2023/09/22 09:15:30;;;;;;;18.70;6.00;;;;;;;-143.21;58.58;71011.44;5124225;28;20226;-91
2023/09/22 09:18:07;;;;;;;11.73;5.22;;;;;;;-143.21;61.94;70971.78;5131686;28;20208;-90
2023/09/22 09:20:36;;;;;;;9.57;4.35;;;;;;;-143.21;58.89;70944.03;5127039;28;20212;-90
2023/09/22 09:23:13;;;;;;;14.95;5.95;;;;;;;-143.21;57.41;70914.31;5114385;28;20208;-93
2023/09/22 09:25:42;;;;;;;11.27;5.43;;;;;;;-143.21;58.28;70882.59;5113284;28;20279;-91
2023/09/22 09:28:12;;;;;;;19.02;6.68;;;;;;;-143.21;58.49;70852.84;5111442;28;20258;-88
2023/09/22 09:30:39;;;;;;;15.88;6.00;;;;;;;-143.21;57.24;70821.13;5111600;28;20609;-88
2023/09/22 09:33:10;;;;;;;8.95;4.75;;;;;;;-143.21;56.15;70799.31;5113060;28;20706;-93
2023/09/22 09:35:41;;;;;;;20.25;6.93;;;;;;;-143.21;55.96;70767.63;5112012;28;20234;-89
2023/09/22 09:38:09;;;;;;;24.50;6.55;;;;;;;-143.21;56.16;70729.94;5112615;28;20288;-91
2023/09/22 09:40:38;;;;;;;27.88;9.02;;;;;;;-143.21;54.11;70716.06;5111452;28;20289;-83
2023/09/22 09:43:12;;;;;;;19.27;6.97;;;;;;;-143.21;53.15;70706.16;5110925;28;20211;-85
2023/09/22 09:45:44;;;;;;;21.88;6.32;;;;;;;-143.21;53.15;70696.25;5110831;28;20638;-84
2023/09/22 09:48:16;;;;;;;16.48;6.85;;;;;;;-143.21;52.46;70672.47;5113014;28;20711;-85
2023/09/22 09:50:48;;;;;;;20.15;7.10;;;;;;;-143.21;52.15;70626.88;5110720;28;20588;-83
2023/09/22 09:53:31;;;;;;;22.45;6.75;;;;;;;-143.21;50.78;70591.19;5110163;28;20666;-82
2023/09/22 09:56:02;;;;;;;16.05;6.05;;;;;;;-143.21;49.39;70595.16;5108112;28;20219;-83
2023/09/22 09:58:34;;;;;;;17.27;6.43;;;;;;;-143.21;49.73;70559.47;5105967;28;20203;-83
2023/09/22 10:01:05;;;;;;;14.40;6.63;;;;;;;-143.21;48.99;70521.81;5109962;28;20207;-82
2023/09/22 10:03:32;;;;;;;19.73;6.35;;;;;;;-143.21;47.40;70498.03;5106926;28;20210;-82
2023/09/22 10:05:59;;;;;;;16.55;6.05;;;;;;;-143.21;47.71;70474.25;5109563;28;20713;-83
2023/09/22 10:08:28;;;;;;;13.77;6.03;;;;;;;-143.21;46.95;70456.41;5109135;28;20248;-85
2023/09/22 10:10:57;;;;;;;13.75;6.47;;;;;;;-143.21;47.40;70434.59;5105362;28;20265;-85
2023/09/22 10:13:24;;;;;;;17.23;6.05;;;;;;;-143.21;46.72;70406.84;5108688;28;20258;-84
2023/09/22 10:15:57;;;;;;;17.92;5.95;;;;;;;-143.21;45.79;70404.88;5107042;27;20209;-84
2023/09/22 10:18:45;;;;;;;22.23;6.40;;;;;;;-143.21;46.33;70377.13;5103922;28;20237;-84
2023/09/22 10:21:39;;;;;;;16.38;6.63;;;;;;;-143.21;45.51;70365.25;5108418;28;20678;-84
2023/09/22 10:24:20;;;;;;;19.10;6.47;;;;;;;-143.21;45.09;70347.41;5107888;28;20208;-84
2023/09/22 10:27:20;;;;;;;17.92;6.15;;;;;;;-143.21;44.41;70327.56;5110008;28;20701;-84
2023/09/22 10:29:54;;;;;;;17.48;5.43;;;;;;;-143.21;42.70;70293.88;5026882;28;20654;-84
2023/09/22 10:32:28;;;;;;;14.85;6.25;;;;;;;-143.21;42.18;70262.19;5027819;28;20242;-85
2023/09/22 10:34:57;;;;;;;22.85;6.38;;;;;;;-143.21;42.16;70244.34;5068816;28;20199;-84
2023/09/22 10:37:26;;;;;;;14.20;5.93;;;;;;;-143.21;42.58;70234.44;5110398;28;20202;-84
2023/09/22 10:39:56;;;;;;;15.13;5.70;;;;;;;-143.21;41.83;70236.41;5110552;28;20272;-84
2023/09/22 10:42:24;;;;;;;18.98;5.95;;;;;;;-143.21;42.66;70246.31;5111292;28;20206;-85
2023/09/22 10:45:02;;;;;;;13.77;5.63;;;;;;;-143.21;42.17;70256.22;5111655;28;20247;-84
2023/09/22 10:47:44;;;;;;;20.48;6.25;;;;;;;-143.21;42.03;70236.41;5111316;28;20689;-84
2023/09/22 10:50:13;;;;;;;17.23;5.70;;;;;;;-143.21;41.46;70214.59;5110060;28;20769;-85
2023/09/22 10:52:41;;;;;;;16.23;5.45;;;;;;;-143.21;41.02;70190.81;5110405;28;20253;-84
2023/09/22 10:55:09;;;;;;;23.20;5.72;;;;;;;-143.21;39.81;70163.06;5110445;28;20287;-84
2023/09/22 10:57:38;;;;;;;22.02;5.65;;;;;;;-143.21;40.61;70133.34;5111043;28;20200;-84
2023/09/22 11:00:13;;;;;;;20.20;5.65;;;;;;;-143.21;39.72;70115.50;5110013;28;20749;-85
2023/09/22 11:02:40;;;;;;;14.15;6.20;;;;;;;-143.21;39.50;70093.72;5110168;28;20202;-85
2023/09/22 11:05:11;;;;;;;16.20;5.13;;;;;;;-143.21;38.18;70073.91;5109654;28;20200;-85
2023/09/22 11:07:38;;;;;;;18.23;5.53;;;;;;;-143.21;37.52;70054.06;5110067;28;20191;-85
2023/09/22 11:10:06;;;;;;;22.55;5.65;;;;;;;-143.21;38.47;70046.16;5109830;28;20991;-86
2023/09/22 11:12:33;;;;;;;19.92;5.28;;;;;;;-143.21;37.51;70024.34;5109639;28;20219;-85
2023/09/22 11:15:01;;;;;;;17.45;5.60;;;;;;;-143.21;36.92;70000.56;5109832;28;20195;-85
2023/09/22 11:17:38;;;;;;;14.05;5.13;;;;;;;-143.21;36.47;69974.81;5109716;28;20208;-85
2023/09/22 11:20:12;;;;;;;20.50;6.03;;;;;;;-143.21;36.96;69964.91;5109769;28;20589;-85